METAR Data

Data at: 2337 UTC 26 Feb 2020

METAR for:KMQE (Milton/Blue Hills Ob, MA, US)
Text:KMQE 262251Z AUTO 07007KT 04/04 A2993 RMK AO1 SLP151 T00440039
Temperature: 4.4°C ( 40°F)
Dewpoint: 3.9°C ( 39°F) [RH = 97%]
Pressure (altimeter):29.93 inches Hg (1013.6 mb) [Sea level pressure: 1015.1 mb]
Winds:from the ENE (70 degrees) at 8 MPH (7 knots; 3.6 m/s)
QC Flag:automated observation with no human augmentation